Detall de PIREP

Printer-friendly versionPDF version

[2010/12/04 17:23:00]
Flight IATA:CT2105
Pilot Number:026
Company ICAO:CAT
Aircraft Type:DC85/A
PAX:136
Departing Airport: LEBB
Destination Airport: LEVC
Alternate Airport:LEPA
Online: VATSIM
Route:PPN UM176 MANDY
Flight Level:FL280
No Slew and time accel
No pause
Crash detect
Detect pilot in Cockpit between each 30 and 45 minutes
17:23 Zero fuel Weight: 178501 Lbs, Fuel Weight: 29993 Lbs
17:23 VATSIM:LEBB 041700Z 17015G25KT 130V220 CAVOK 07/M02 Q1014 WS ALL RWY NOSIG
17:23 VATSIM:LEVC 041700Z 00000KT CAVOK 09/02 Q1021 NOSIG
17:23 VOICE CATALONIAN / LEVC HUB ROUTE CT2105
17:29 Parking Brakes off
17:38 Take-off
17:38 Take off Weight: 207423 Lbs
17:38 Wind: 172º @ 015 Knots Heading: 118º
17:38 POS N43º 17´ 51´´ W002º 54´ 06´´
17:38 Gear Up: 198 Knots
17:38 Flaps:1 at 198 Knots
17:38 Flaps:2 at 211 Knots
17:39 Flaps:1 at 235 Knots
17:40 Flaps:0 at 264 Knots
17:53 Wind:130º@018 Knots Heading: 169º Ground Speed: 370 Knots Altitude 27125 ft
17:53 TOC
17:53 Fuel Weight: 24092 Lb
18:02 TOD
18:02 Fuel Weight: 22203 Lb
18:08 Wind:122º@015 Knots Heading: 166º Ground Speed: 391 Knots Altitude 18900 ft
18:23 Wind:320º@009 Knots Heading: 111º Ground Speed: 322 Knots Altitude 7217 ft
18:27 Flaps:1 at 187 Knots
18:30 Gear Down: 200 Knots
18:30 Flaps:2 at 174 Knots
18:30 Flaps:3 at 182 Knots
18:31 Flaps:4 at 173 Knots
18:32 Flaps:5 at 148 Knots
18:33 TouchDown:Rate -73 ft/min Speed: 128 Knots
18:33 VATSIM:LEVC 041800Z 32004KT CAVOK 06/02 Q1021 NOSIG
18:33 Land
18:33 Wind:323º@004 Knots
18:33 Heading: 294º
18:33 Flight Duration: 00:55
18:33 Landing Weight: 197077 Lbs
18:33 POS N39º 29´ 22´´ W000º 28´ 55´´
18:37 Parking brakes on
18:37 Block to Block Duration: 01:08
18:37 Final Fuel: 18216 Lbls
18:37 Spent Fuel: 11776 Lbls
18:37 Flight Length: 307 NM
18:37 TOD Land Length: 156 NM
18:37 Spent Fuel: 11776 Lbls
18:37 Flight Length: 307 NM
18:37 TOD Land Length: 156 NMWind:130º@018 Knots Heading: 169º Ground Speed: 370 Knots Altitude 27125 ft
17:53 TOC
17:53 Fuel Weight: 24092 Lb
18:02 TOD
18:02 Fuel Weight: 22203 Lb
18:08 Wind:122º@015 Knots Heading: 166º Ground Speed: 391 Knots Altitude 18900 ft
18:23 Wind:320º@009 Knots Heading: 111º Ground Speed: 322 Knots Altitude 7217 ft
18:27 Flaps:1 at 187 Knots
18:30 Gear Down: 200 Knots
18:30 Flaps:2 at 174 Knots
18:30 Flaps:3 at 182 Knots
18:31 Flaps:4 at 173 Knots
18:32 Flaps:5 at 148 Knots
18:33 TouchDown:Rate -73 ft/min Speed: 128 Knots
18:33 VATSIM:LEVC 041800Z 32004KT CAVOK 06/02 Q1021 NOSIG
18:33 Land
18:33 Wind:323º@004 Knots
18:33 Heading: 294º
18:33 Flight Duration: 00:55
18:33 Landing Weight: 197077 Lbs
18:33 POS N39º 29´ 22´´ W000º 28´ 55´´
18:37 Parking brakes on
18:37 Block to Block Duration: 01:08
18:37 Final Fuel: 18216 Lbls
18:37 Spent Fuel: 11776 Lbls
18:37 Flight Length: 307 NM
18:37 TOD Land Length: 156 NMWind:130º@018 Knots Heading: 169º Ground Speed: 370 Knots Altitude 27125 ft
17:53 TOC
17:53 Fuel Weight: 24092 Lb
18:02 TOD
18:02 Fuel Weight: 22203 Lb
18:08 Wind:122º@015 Knots Heading: 166º Ground Speed: 391 Knots Altitude 18900 ft
18:23 Wind:320º@009 Knots Heading: 111º Ground Speed: 322 Knots Altitude 7217 ft
18:27 Flaps:1 at 187 Knots
18:30 Gear Down: 200 Knots
18:30 Flaps:2 at 174 Knots
18:30 Flaps:3 at 182 Knots
18:31 Flaps:4 at 173 Knots
18:32 Flaps:5 at 148 Knots
18:33 TouchDown:Rate -73 ft/min Speed: 128 Knots
18:33 VATSIM:LEVC 041800Z 32004KT CAVOK 06/02 Q1021 NOSIG
18:33 Land
18:33 Wind:323º@004 Knots
18:33 Heading: 294º
18:33 Flight Duration: 00:55
18:33 Landing Weight: 197077 Lbs
18:33 POS N39º 29´ 22´´ W000º 28´ 55´´
18:37 Parking brakes on
18:37 Block to Block Duration: 01:08
18:37 Final Fuel: 18216 Lbls
18:37 Spent Fuel: 11776 Lbls
18:37 Flight Length: 307 NM
18:37 TOD Land Length: 156 NM

Exportar CSV

Powered by Drupal - Modified by Danger4k